Weather observations for the past three days for
Slayton Municipal Airport
Metric (Imperial)
Date Time (cdt) Wind (kph) Vis. (km) Weather Sky Cond. Temperature (ºC) Relative Humidity Wind Chill (°C) Heat Index (°C) Pressure Precipitation (cm)
Air Dwpt 6 hour altimeter (cm) sea level (mb) 1 hr 3 hr 6 hr
Max. Min.
04 07:33 W 26 16.09 Fair CLR 12.4 2.8 52% 75.08 0.0
04 07:13 W 24 G 30 16.09 Fair CLR 12.4 2.2 50% 75.06 0.0
04 06:53 W 22 16.09 Fair CLR 11.7 2.1 12.4 9.1 52% 75.01 0.0
04 06:33 W 20 G 39 16.09 Fair CLR 12.3 2.3 51% 75.01 0.0
04 06:13 W 26 16.09 Fair CLR 11.5 1.9 52% 75.01 0.0
04 05:53 SW 33 16.09 Fair and Breezy CLR 11.7 1.5 50% 74.96 0.0
04 05:33 SW 35 16.09 Fair and Breezy CLR 11.7 0.9 48% 74.96 0.0
04 04:53 SW 37 16.09 Fair and Breezy CLR 12 0.1 44% 75.01 0.0
04 04:33 SW 35 16.09 Fair and Breezy CLR 11.3 0.1 46% 75.01 0.0
04 04:13 SW 28 16.09 Fair CLR 10.5 0.5 50% 75.06 0.0
04 03:53 SW 17 16.09 Fair CLR 9.3 0.5 54% 7 75.06 0.0
04 03:33 SW 15 16.09 Fair CLR 9.2 0.5 55% 7 75.08 0.0
04 03:13 SW 19 16.09 Fair CLR 9.8 0.2 52% 8 75.11 0.0
04 02:53 SW 17 16.09 Fair CLR 11.4 0 46% 75.11 0.0
04 02:33 SW 19 16.09 Fair CLR 10.6 0.2 49% 75.13 0.0
04 02:13 SW 19 16.09 Fair CLR 9.5 0 52% 7 75.16 0.0
04 01:53 SW 11 16.09 Fair CLR 9.6 0 52% 8 75.18 0.0
04 01:33 SW 15 16.09 Fair CLR 10 0 50% 8 75.23 0.0
04 01:13 SW 15 16.09 Fair CLR 10.4 0 49% 75.26 0.0
04 00:53 SW 17 16.09 Fair CLR 11.5 0.1 21 11.5 46% 75.26 0.0
04 00:33 SW 17 16.09 Fair CLR 12 0.5 46% 75.29 0.0
04 00:13 SW 15 16.09 Fair CLR 13.1 0.6 43% 75.29 0.0
03 23:53 SW 19 16.09 Fair CLR 12.7 1.1 45% 75.34 0.0
03 23:33 SW 19 16.09 Fair CLR 13.4 1.4 44% 75.36 0.0
03 23:13 SW 19 16.09 Fair CLR 12.6 1.1 46% 75.39 0.0
03 22:53 SW 15 16.09 Fair CLR 12.6 0.8 45% 75.41 0.0
03 22:33 SW 17 16.09 Fair CLR 12.9 0.5 43% 75.41 0.0
03 22:13 SW 17 16.09 Partly Cloudy SCT110 13.5 0.1 40% 75.44 0.0
03 21:53 SW 11 16.09 Fair CLR 13.4 0.5 42% 75.46 0.0
03 21:33 W 15 16.09 Partly Cloudy SCT110 16.6 -0.3 32% 75.46 0.0
03 21:13 W 15 16.09 Partly Cloudy SCT110 15.5 0 35% 75.49 0.0
03 20:53 SW 11 16.09 Fair CLR 16.1 -0.1 33% 75.49 0.0
03 20:33 SW 15 16.09 Fair CLR 16.6 -0.4 32% 75.49 0.0
03 20:13 SW 11 16.09 Fair CLR 18.5 -2.8 24% 75.46 0.0
03 19:53 W 11 16.09 Fair CLR 20 -4.5 19% 75.49 0.0
03 19:33 W 19 G 31 16.09 Fair CLR 20.5 -4.6 18% 75.51 0.0
03 19:13 W 22 G 35 16.09 Fair CLR 21 -2 21% 75.51 0.0
03 18:53 W 26 16.09 Fair CLR 21.1 -4.1 22.1 18.4 18% 75.51 0.0
03 18:33 W 24 G 33 16.09 Fair CLR 21.5 -2.4 20% 75.54 0.0
03 18:13 W 24 16.09 Fair CLR 21.5 -2.8 19% 75.54 0.0
03 17:53 W 24 G 31 16.09 Fair CLR 21.6 -4.6 17% 75.57 0.0
03 17:33 W 26 G 35 16.09 Fair CLR 21.7 -3.7 18% 75.57 0.0
03 17:13 W 28 G 39 16.09 Fair CLR 21.6 -3.1 19% 75.57 0.0
03 16:53 W 26 G 33 16.09 Fair CLR 21.9 -3 19% 75.59 0.0
03 16:33 NW 24 G 35 16.09 Fair CLR 21.8 -2.2 20% 75.62 0.0
03 16:13 W 19 G 30 16.09 Fair CLR 21.5 -1.8 21% 75.62 0.0
03 15:53 W 30 G 37 16.09 Fair CLR 21.7 -2.3 20% 75.64 0.0
03 15:33 W 28 G 44 16.09 Fair CLR 21.2 -1.2 22% 75.67 0.0
03 15:13 NW 28 G 35 16.09 Fair CLR 21.1 -0.5 24% 75.69 0.0
03 14:53 W 26 G 33 16.09 Fair CLR 20.9 0.7 26% 75.69 0.0
03 14:33 NW 19 G 33 16.09 Fair CLR 20.4 0.6 27% 75.72 0.0
03 14:13 N 17 G 26 16.09 Fair CLR 20.1 0.4 27% 75.74 0.0
03 13:53 NW 20 G 39 16.09 Fair CLR 19.8 0.2 27% 75.74 0.0
03 13:33 NW 19 G 41 16.09 Fair CLR 19.2 0.5 29% 75.77 0.0
03 13:13 NW 22 G 31 16.09 Fair CLR 19.1 0.7 29% 75.79 0.0
03 12:53 N 22 G 39 16.09 Fair CLR 18.7 0.6 18.7 10.2 30% 75.82 0.0
03 12:33 N 24 G 37 16.09 Fair CLR 18.4 1.3 32% 75.82 0.0
03 12:13 NW 24 G 37 16.09 Fair CLR 18.2 1.9 34% 75.84 0.0
03 11:53 NW 26 G 39 16.09 Fair CLR 17.5 1.7 35% 75.84 0.0
03 11:33 N 33 G 43 16.09 Fair and Breezy CLR 17.5 2.1 36% 75.84 0.0
03 11:13 NW 30 16.09 Fair CLR 17.2 2.4 37% 75.84 0.0
03 10:53 N 30 G 41 16.09 Fair CLR 17 2.2 37% 75.84 0.0
03 10:33 NW 26 G 37 16.09 Fair CLR 16.6 2.7 40% 75.84 0.0
03 10:13 N 28 G 39 16.09 Fair CLR 16.1 3.1 42% 75.84 0.0
03 09:53 NW 22 G 37 16.09 Fair CLR 15.5 2.9 43% 75.84 0.0
03 09:33 NW 22 G 33 16.09 Fair CLR 15 3 45% 75.82 0.0
03 09:13 NW 26 G 37 16.09 Fair CLR 14.3 2.9 46% 75.82 0.0
03 08:53 NW 26 G 37 16.09 Fair CLR 13.8 2.7 47% 75.82 0.0
03 08:33 NW 28 16.09 Fair CLR 12.9 2.7 50% 75.82 0.0
03 08:13 NW 24 G 39 16.09 Fair CLR 12.2 2.4 51% 75.79 0.0
03 07:53 NW 26 G 35 16.09 Fair CLR 11.9 2.1 51% 75.77 0.0
03 07:33 NW 22 16.09 Fair CLR 11.1 1.7 53% 75.74 0.0
03 06:53 NW 24 16.09 Fair CLR 10.1 1.7 15 9.5 56% 75.69 0.0
03 06:33 NW 26 16.09 Fair CLR 9.8 1.5 57% 7 75.67 0.0
03 06:13 NW 20 16.09 Fair CLR 10 1.2 55% 8 75.64 0.0
03 05:53 NW 26 G 31 16.09 Fair CLR 10.2 1.2 54% 75.62 0.0
03 05:33 NW 19 16.09 Fair CLR 9.5 1.5 58% 7 75.62 0.0
03 05:13 NW 19 16.09 Fair CLR 9.7 1.5 57% 7 75.62 0.0
03 04:53 NW 19 16.09 Fair CLR 10.1 1.8 57% 75.62 0.0
03 04:33 NW 20 16.09 Fair CLR 10.8 2 55% 75.62 0.0
03 04:13 W 19 16.09 Fair CLR 11.3 2.1 53% 75.62 0.0
03 03:53 W 19 16.09 Fair CLR 11.8 1.9 51% 75.62 0.0
03 03:33 W 24 16.09 Fair CLR 12.8 1.5 46% 75.59 0.0
03 03:13 W 17 16.09 Fair CLR 13.4 1.3 44% 75.57 0.0
03 02:53 W 22 16.09 Partly Cloudy SCT120 13.8 1.2 43% 75.57 0.0
03 02:33 SW 20 16.09 Mostly Cloudy SCT100 BKN120 13.6 1 43% 75.57 0.0
03 01:53 W 19 G 26 16.09 Overcast OVC100 14.5 0.2 38% 75.62 0.0
03 01:33 W 24 16.09 Mostly Cloudy BKN100 14.9 0 36% 75.62 0.0
03 01:13 SW 26 16.09 Partly Cloudy SCT100 SCT120 13.7 -0.5 38% 75.62 0.0
03 00:53 SW 26 16.09 Partly Cloudy SCT120 14.1 -1.4 19 14.1 35% 75.62 0.0
03 00:33 SW 31 16.09 Partly Cloudy SCT090 SCT120 14.8 -2 32% 75.59 0.0
03 00:13 SW 31 G 46 16.09 Mostly Cloudy BKN100 BKN120 15.1 -2.3 30% 75.62 0.0
02 23:53 SW 26 16.09 Mostly Cloudy BKN100 BKN120 14.8 -2.5 30% 75.62 0.0
02 23:33 SW 26 16.09 Partly Cloudy SCT100 14.9 -2.9 29% 75.64 0.0
02 23:13 S 28 16.09 Partly Cloudy SCT100 15.2 -2.9 29% 75.64 0.0
02 22:53 S 22 16.09 Fair CLR 15.5 -2.8 28% 75.67 0.0
02 22:33 S 17 16.09 Partly Cloudy SCT100 15.6 -2.8 28% 75.69 0.0
02 22:13 S 15 16.09 Mostly Cloudy BKN100 16 -2.8 28% 75.69 0.0
02 21:53 S 17 16.09 Mostly Cloudy BKN110 16 -2.2 29% 75.74 0.0
02 21:33 S 15 16.09 Overcast OVC100 15.9 -1.8 30% 75.74 0.0
02 21:13 S 13 16.09 Overcast OVC100 16.1 -1.9 29% 75.74 0.0
02 20:53 S 15 16.09 Mostly Cloudy BKN110 16.7 -2.7 27% 75.77 0.0
02 20:33 S 13 16.09 Partly Cloudy SCT100 SCT120 16.9 -2.6 26% 75.79 0.0
02 20:13 S 19 16.09 Mostly Cloudy SCT100 BKN120 17.5 -3.1 24% 75.79 0.0
02 19:53 SW 19 16.09 Mostly Cloudy BKN110 18 -3.6 23% 75.82 0.0
02 19:33 SW 28 G 37 16.09 Overcast OVC110 18.3 -3.3 23% 75.84 0.0
02 19:13 SW 28 16.09 Overcast OVC110 18.6 -3.6 22% 75.87 0.0
02 18:53 SW 33 16.09 Overcast and Breezy OVC110 19 -2.9 20 16.4 23% 75.9 0.0
02 18:33 SW 31 G 41 16.09 Mostly Cloudy BKN120 19.1 -2.7 23% 75.92 0.0
02 17:53 SW 28 16.09 Mostly Cloudy BKN120 19.2 -2.6 23% 75.92 0.0
02 17:33 SW 28 G 41 16.09 Partly Cloudy SCT110 19.5 -2.5 23% 75.92 0.0
02 17:13 SW 20 G 39 16.09 Overcast OVC100 18.8 -1.8 25% 76 0.0
02 16:53 SW 28 G 37 16.09 Overcast OVC110 18.8 -1.6 25% 76 0.0
02 16:33 SW 24 G 35 16.09 Overcast OVC110 18.7 -2 25% 76.05 0.0
02 16:13 SW 17 G 31 16.09 Mostly Cloudy BKN120 18.4 -1.9 25% 76.05 0.0
02 15:53 SW 22 G 41 16.09 Partly Cloudy SCT120 18.9 -1.7 25% 76.07 0.0
02 15:33 SW 26 G 39 16.09 Partly Cloudy SCT080 19.2 -2 24% 76.1 0.0
02 15:13 SW 31 G 43 16.09 Partly Cloudy SCT080 19.3 -1.1 25% 76.12 0.0
02 14:53 W 19 G 31 16.09 Partly Cloudy SCT080 18.8 -1 26% 76.15 0.0
02 14:33 SW 28 G 39 16.09 Fair CLR 18.6 -0.8 27% 76.17 0.0
02 14:13 W 19 G 31 16.09 Fair CLR 18 -1.6 27% 76.2 0.0
02 13:53 SW 20 G 35 16.09 Fair CLR 17.6 -1.4 28% 76.23 0.0
02 13:33 W 22 G 31 16.09 Fair CLR 17.2 -1.6 28% 76.25 0.0
02 13:13 SW 24 G 39 16.09 Fair CLR 16.7 -1.4 29% 76.25 0.0
02 12:53 SW 30 G 35 16.09 Fair CLR 16.6 -1.3 16.6 2.7 30% 76.3 0.0
02 12:33 W 22 G 28 16.09 Fair CLR 16.1 -1.6 30% 76.33 0.0
02 12:13 W 19 G 30 16.09 Fair CLR 15.6 -1.4 31% 76.35 0.0
02 11:53 W 17 G 33 16.09 Fair CLR 15 -1.6 32% 76.35 0.0
02 11:33 SW 19 G 28 16.09 Fair CLR 14.4 -2.4 32% 76.35 0.0
02 10:53 SW 20 G 31 16.09 Fair CLR 13.1 -2.8 33% 76.4 0.0
02 10:33 SW 22 G 28 16.09 Fair CLR 12.6 -2.4 35% 76.43 0.0
02 10:13 SW 22 G 31 16.09 Fair CLR 12 -2.8 36% 76.43 0.0
02 09:53 SW 24 G 31 16.09 Fair CLR 11.4 -3.3 36% 76.45 0.0
02 09:33 SW 26 G 35 16.09 Fair CLR 10.8 -3.1 38% 76.45 0.0
02 09:13 SW 24 16.09 Fair CLR 10 -2.8 41% 7 76.45 0.0
02 08:53 SW 24 16.09 Fair CLR 9.1 -2.7 44% 6 76.45 0.0
02 08:33 SW 20 16.09 Fair CLR 8.2 -2.4 48% 5 76.48 0.0
02 08:13 SW 22 16.09 Fair CLR 7.2 -2.4 51% 4 76.48 0.0
02 07:53 SW 19 16.09 Fair CLR 6.7 -2.6 52% 4 76.48 0.0
02 07:33 SW 13 16.09 Fair CLR 5 -2.3 60% 2 76.5 0.0
02 07:13 SW 17 16.09 Fair CLR 3.9 -3 61% 0 76.5 0.0
02 06:53 SW 11 16.09 Fair CLR 2.4 -3.3 4.1 1 66% -0 76.5 0.0
02 06:33 SW 7 16.09 Fair CLR 1.7 -3.6 68% -0 76.48 0.0
02 06:13 SW 9 16.09 Fair CLR 1.1 -3.8 70% -1 76.5 0.0
02 05:53 SW 11 16.09 Fair CLR 1.5 -4 67% -1 76.5 0.0
02 05:33 SW 7 16.09 Fair CLR 1.3 -3.8 69% -1 76.5 0.0
02 05:13 SW 9 16.09 Fair CLR 1.7 -4 66% -1 76.5 0.0
02 04:53 W 11 16.09 Fair CLR 2.2 -4 64% -1 76.53 0.0
02 04:33 W 13 16.09 Fair CLR 4 -4 56% 1 76.5 0.0
02 04:13 W 13 16.09 Fair CLR 4 -4.1 56% 1 76.5 0.0
02 03:53 W 11 16.09 Fair CLR 2.3 -3.7 65% -0 76.5 0.0
02 03:33 W 6 16.09 Fair CLR 1.2 -3.9 69% 76.5 0.0
02 03:13 Calm 16.09 Fair CLR 1.1 -4 69% 76.5 0.0
02 02:53 W 6 16.09 Fair CLR 1.7 -3.6 68% 76.5 0.0
02 02:33 W 7 16.09 Fair CLR 1.6 -3.8 68% -0 76.5 0.0
02 02:13 W 9 16.09 Fair CLR 1.9 -3.6 67% -1 76.53 0.0
02 01:53 W 6 16.09 Fair CLR 2 -3.5 67% 76.53 0.0
02 01:33 Calm 16.09 Fair CLR 2.8 -3.5 64% 76.53 0.0
02 01:13 W 7 16.09 Fair CLR 1.8 -3.5 68% -0 76.53 0.0
02 00:53 W 7 16.09 Fair CLR 2.7 -3.4 10.3 2.4 65% 1 76.53 0.0
02 00:33 W 9 16.09 Partly Cloudy SCT048 SCT055 3 -3.5 63% 1 76.53 0.0
02 00:13 W 6 16.09 Fair CLR 2.6 -3.3 65% 76.53 0.0
01 23:53 W 7 16.09 Fair CLR 3.8 -3.3 60% 2 76.53 0.0
01 23:33 W 6 16.09 Fair CLR 3.8 -3.5 59% 76.53 0.0
01 23:13 W 7 16.09 Fair CLR 4.1 -3.6 58% 3 76.53 0.0
01 22:53 W 7 16.09 Fair CLR 4.8 -3.5 55% 3 76.53 0.0
01 22:33 W 7 16.09 Fair CLR 4.5 -3.5 56% 3 76.53 0.0
01 22:13 W 6 16.09 Fair CLR 4.5 -3.7 56% 76.53 0.0
01 21:53 NW 6 16.09 Fair CLR 5.6 -3.2 54% 76.53 0.0
01 21:33 NW 6 16.09 Fair CLR 5.6 -3.4 53% 76.53 0.0
01 21:13 N 6 16.09 Fair CLR 6.3 -3.9 48% 76.53 0.0
01 20:53 NW 9 16.09 Fair CLR 7.4 -4.5 43% 6 76.5 0.0
01 20:33 N 7 16.09 Fair CLR 7.6 -4.2 43% 7 76.48 0.0
01 20:13 Calm 16.09 Fair CLR 9.1 -4.7 38% 76.48 0.0
01 19:53 N 15 16.09 Fair CLR 9.4 -4.6 37% 7 76.45 0.0
01 19:33 N 11 16.09 Partly Cloudy SCT060 9.9 -5.1 35% 9 76.45 0.0
01 19:13 N 13 16.09 Partly Cloudy SCT060 10.2 -5.2 34% 76.45 0.0
01 18:53 N 13 16.09 Partly Cloudy SCT060 10.1 -4.9 10.8 8.1 35% 76.45 0.0
01 18:33 N 15 16.09 Partly Cloudy SCT060 10.5 -4.3 35% 76.45 0.0
01 18:13 N 17 16.09 Partly Cloudy SCT060 10.6 -4.2 35% 76.45 0.0
01 17:53 N 15 16.09 Partly Cloudy SCT060 9.6 -4.3 38% 8 76.45 0.0
01 17:33 N 15 16.09 Fair CLR 9.6 -4 38% 8 76.45 0.0
01 17:13 N 11 G 26 16.09 Fair CLR 10.4 -3.8 37% 76.45 0.0
01 16:53 NW 11 16.09 Partly Cloudy SCT060 10.2 -3.7 38% 76.45 0.0
01 16:33 N 17 G 26 16.09 Mostly Cloudy BKN060 10.6 -3.8 36% 76.45 0.0
01 16:13 N 17 16.09 Mostly Cloudy BKN060 10.6 -4.2 35% 76.45 0.0
01 15:53 N 13 16.09 Mostly Cloudy BKN060 10.2 -4.5 36% 76.48 0.0
01 15:33 N 15 16.09 Mostly Cloudy BKN060 10.4 -4 36% 76.48 0.0
01 15:13 N 20 G 28 16.09 Partly Cloudy SCT050 10.1 -3.6 38% 76.48 0.0
01 14:53 NE 17 G 30 16.09 Mostly Cloudy BKN050 9.5 -4.3 38% 7 76.48 0.0
01 14:33 N 17 16.09 Mostly Cloudy BKN055 9.6 -3.3 40% 7 76.48 0.0
01 14:13 N 13 16.09 Mostly Cloudy BKN049 9.4 -2.8 43% 8 76.48 0.0
01 13:53 N 22 G 28 16.09 Mostly Cloudy BKN049 9.6 -3.4 40% 7 76.48 0.0
01 13:33 N 22 16.09 Mostly Cloudy BKN049 9 -3.1 43% 6 76.48 0.0
01 13:13 NE 13 16.09 Partly Cloudy SCT049 8.9 -3.9 41% 7 76.48 0.0
01 12:53 NE 9 16.09 Mostly Cloudy BKN047 8.3 -4.2 8.5 0.9 41% 7 76.48 0.0
01 12:33 N 19 16.09 Mostly Cloudy BKN047 8.2 -3.5 44% 6 76.48 0.0
01 12:13 N 22 G 28 16.09 Partly Cloudy SCT045 7.8 -3.9 44% 5 76.48 0.0
01 11:53 N 17 G 30 16.09 Partly Cloudy SCT043 7.6 -3.5 46% 5 76.48 0.0
01 11:33 N 19 G 30 16.09 Mostly Cloudy BKN041 7.2 -3.8 46% 4 76.48 0.0
01 11:13 N 15 G 26 16.09 Partly Cloudy SCT041 SCT050 7.2 -2.4 51% 5 76.48 0.0
01 10:53 N 19 16.09 Fair CLR 6.7 -2.6 52% 4 76.48 0.0
01 10:33 N 22 G 33 16.09 Fair CLR 6.5 -2.2 54% 3 76.48 0.0
01 10:13 N 20 G 30 16.09 Fair CLR 6.2 -1.9 57% 3 76.48 0.0
01 09:53 N 19 G 26 16.09 Partly Cloudy SCT060 5.8 -1.3 61% 3 76.48 0.0
01 09:33 N 26 G 33 16.09 Fair CLR 5.4 -1.5 61% 1 76.48 0.0
01 09:13 NW 22 G 30 16.09 Fair CLR 5 -1.6 63% 1 76.48 0.0
01 08:53 N 17 16.09 Fair CLR 4 -1.4 68% 1 76.48 0.0
01 08:33 NW 17 16.09 Fair CLR 3.3 -1.1 73% -0 76.45 0.0
01 08:13 NW 19 16.09 Fair CLR 2.6 -1 77% -1 76.45 0.0
01 07:53 NW 19 16.09 Fair CLR 2.1 -1.3 78% -2 76.43 0.0
Date Time (cdt) Wind (kph) Vis. (km) Weather Sky Cond. Air Dwpt Max. Min. Relative Humidity Wind Chill (°C) Heat Index (°C) altimeter (cm) sea level (mb) 1 hr 3 hr 6 hr
6 hour
Temperature (ºC) Pressure Precipitation (cm)